Time;durP1;ratioP1;P1;durP2;ratioP2;P2;SDS_P1;SDS_P2;PMS_P1;PMS_P2;Temp;Humidity;BMP_temperature;BMP_pressure;BME280_temperature;BME280_humidity;BME280_pressure;Samples;Min_cycle;Max_cycle;Signal;HPM_P1;HPM_P2
2022/11/29 00:02:24;;;;;;;174.13;34.17;;;6.40;99.90;;;;;;5013179;28;20091;-81
2022/11/29 00:05:11;;;;;;;116.90;27.50;;;6.40;99.90;;;;;;5013766;28;20144;-80
2022/11/29 00:07:57;;;;;;;109.25;27.52;;;6.40;99.90;;;;;;5031507;28;20049;-81
2022/11/29 00:10:44;;;;;;;108.18;28.90;;;6.40;99.90;;;;;;5014411;28;20056;-80
2022/11/29 00:13:30;;;;;;;131.02;30.85;;;6.40;99.90;;;;;;5036656;28;20053;-81
2022/11/29 00:16:16;;;;;;;160.70;34.58;;;6.40;99.90;;;;;;5029918;28;20047;-81
2022/11/29 00:19:02;;;;;;;63.47;22.88;;;6.40;99.90;;;;;;5013078;28;20049;-80
2022/11/29 00:21:48;;;;;;;104.28;29.30;;;6.40;99.90;;;;;;5031439;28;20425;-80
2022/11/29 00:24:35;;;;;;;97.28;27.42;;;6.30;99.90;;;;;;5030496;28;20061;-81
2022/11/29 00:27:22;;;;;;;96.60;28.30;;;6.30;99.90;;;;;;5001024;28;20060;-80
2022/11/29 00:30:08;;;;;;;77.68;25.35;;;6.30;99.90;;;;;;5035300;28;20042;-81
2022/11/29 00:32:54;;;;;;;90.28;26.60;;;6.40;99.90;;;;;;5032153;28;20049;-81
2022/11/29 00:35:41;;;;;;;105.18;30.10;;;6.40;99.90;;;;;;5030029;28;20572;-81
2022/11/29 00:38:27;;;;;;;120.38;29.90;;;6.30;99.90;;;;;;5016240;28;20048;-80
2022/11/29 00:41:13;;;;;;;137.98;34.17;;;6.30;99.90;;;;;;5031069;28;20049;-81
2022/11/29 00:43:59;;;;;;;119.57;30.77;;;6.30;99.90;;;;;;5015918;28;20053;-81
2022/11/29 00:46:46;;;;;;;212.07;38.67;;;6.30;99.90;;;;;;5018518;28;20053;-81
2022/11/29 00:49:32;;;;;;;147.07;33.00;;;6.30;99.90;;;;;;5031314;28;20395;-80
2022/11/29 00:52:18;;;;;;;67.68;24.50;;;6.30;99.90;;;;;;5030223;28;20420;-80
2022/11/29 00:55:05;;;;;;;68.07;23.00;;;6.30;99.90;;;;;;5030036;28;20050;-80
2022/11/29 00:57:51;;;;;;;154.18;33.50;;;6.30;99.90;;;;;;5029928;28;20049;-81
2022/11/29 01:00:37;;;;;;;91.03;28.13;;;6.30;99.90;;;;;;5015531;28;20054;-81
2022/11/29 01:03:24;;;;;;;68.22;24.67;;;6.30;99.90;;;;;;5014356;28;20394;-81
2022/11/29 01:06:13;;;;;;;97.25;29.55;;;6.30;99.90;;;;;;5030869;28;20140;-80
2022/11/29 01:08:59;;;;;;;86.07;28.58;;;6.30;99.90;;;;;;4999677;28;20049;-81
2022/11/29 01:11:45;;;;;;;83.10;26.73;;;6.30;99.90;;;;;;5030293;28;20061;-81
2022/11/29 01:14:31;;;;;;;85.55;27.50;;;6.30;99.90;;;;;;5030022;28;20382;-81
2022/11/29 01:17:17;;;;;;;76.68;26.15;;;6.30;99.90;;;;;;5030208;28;20164;-81
2022/11/29 01:20:06;;;;;;;86.20;28.80;;;6.30;99.90;;;;;;5032077;28;20482;-80
2022/11/29 01:22:52;;;;;;;97.63;29.95;;;6.30;99.90;;;;;;5014556;28;20131;-81
2022/11/29 01:25:38;;;;;;;56.25;21.55;;;6.30;99.90;;;;;;5030381;28;20053;-81
2022/11/29 01:28:25;;;;;;;88.10;30.13;;;6.30;99.90;;;;;;5031599;28;20128;-81
2022/11/29 01:31:14;;;;;;;64.95;25.40;;;6.20;99.90;;;;;;5012002;28;20485;-81
2022/11/29 01:34:02;;;;;;;68.40;24.27;;;6.20;99.90;;;;;;5000901;28;20104;-80
2022/11/29 01:36:48;;;;;;;84.70;26.08;;;6.20;99.90;;;;;;5032290;28;20140;-81
2022/11/29 01:39:35;;;;;;;86.18;27.85;;;6.20;99.90;;;;;;5030504;28;20061;-81
2022/11/29 01:42:21;;;;;;;84.35;28.35;;;6.20;99.90;;;;;;5015869;28;20519;-81
2022/11/29 01:45:20;;;;;;;75.55;26.10;;;6.20;99.90;;;;;;5030597;28;20049;-81
2022/11/29 01:48:06;;;;;;;78.28;27.02;;;6.20;99.90;;;;;;5016140;28;20417;-81
2022/11/29 01:50:55;;;;;;;88.25;28.67;;;6.20;99.90;;;;;;5034180;28;20059;-81
2022/11/29 01:53:41;;;;;;;81.38;26.00;;;6.10;99.90;;;;;;5018067;28;20058;-80
2022/11/29 01:56:29;;;;;;;64.90;23.50;;;6.10;99.90;;;;;;5035532;28;20132;-80
2022/11/29 01:59:22;;;;;;;103.63;30.17;;;6.10;99.90;;;;;;5032117;28;20053;-80
2022/11/29 02:02:13;;;;;;;84.10;26.77;;;6.10;99.90;;;;;;5002453;28;20058;-80
2022/11/29 02:05:02;;;;;;;58.88;23.35;;;6.10;99.90;;;;;;5016458;28;20136;-80
2022/11/29 02:07:51;;;;;;;70.63;25.55;;;6.10;99.90;;;;;;5033907;28;20050;-80
2022/11/29 02:10:46;;;;;;;56.38;21.27;;;6.10;99.90;;;;;;5018262;28;20049;-80
2022/11/29 02:13:38;;;;;;;81.82;25.95;;;6.10;99.90;;;;;;5034355;28;20089;-80
2022/11/29 02:16:48;;;;;;;51.65;20.90;;;6.00;99.90;;;;;;5032937;28;20084;-80
2022/11/29 02:19:41;;;;;;;67.78;24.33;;;6.00;99.90;;;;;;5002381;28;20139;-80
2022/11/29 02:22:50;;;;;;;48.28;21.52;;;6.00;99.90;;;;;;5001848;28;20053;-80
2022/11/29 02:25:42;;;;;;;66.80;24.05;;;6.00;99.90;;;;;;5014777;28;20509;-80
2022/11/29 02:28:47;;;;;;;71.60;26.50;;;6.00;99.90;;;;;;5036156;28;20467;-80
2022/11/29 02:31:36;;;;;;;47.70;19.60;;;6.10;99.90;;;;;;5033504;28;20057;-80
2022/11/29 02:34:39;;;;;;;50.58;20.10;;;6.00;99.90;;;;;;5033092;28;20053;-81
2022/11/29 02:37:25;;;;;;;64.47;23.48;;;6.00;99.90;;;;;;5013207;28;20049;-80
2022/11/29 02:40:44;;;;;;;62.25;23.65;;;6.00;99.90;;;;;;5032647;28;20049;-80
2022/11/29 02:44:04;;;;;;;44.67;19.77;;;6.00;99.90;;;;;;5003760;28;20167;-80
2022/11/29 02:47:09;;;;;;;53.38;22.80;;;6.00;99.90;;;;;;5002480;28;20053;-82
2022/11/29 02:50:16;;;;;;;55.90;22.25;;;6.00;99.90;;;;;;5033035;28;20053;-80
2022/11/29 02:53:02;;;;;;;46.97;20.95;;;6.00;99.90;;;;;;5018396;28;20059;-81
2022/11/29 02:55:54;;;;;;;47.47;20.15;;;6.00;99.90;;;;;;5032006;28;20119;-81
2022/11/29 02:59:01;;;;;;;61.40;23.67;;;6.00;99.90;;;;;;5000350;28;20076;-80
2022/11/29 03:02:31;;;;;;;49.33;22.27;;;5.90;99.90;;;;;;5032327;28;20493;-81
2022/11/29 03:05:40;;;;;;;59.25;21.15;;;5.90;99.90;;;;;;5032282;28;20056;-80
2022/11/29 03:08:35;;;;;;;50.13;20.52;;;5.90;99.90;;;;;;5032458;28;20488;-80
2022/11/29 03:11:46;;;;;;;62.17;21.73;;;5.90;99.90;;;;;;5014529;28;20521;-81
2022/11/29 03:14:54;;;;;;;58.80;19.95;;;5.90;99.90;;;;;;5016071;28;20164;-80
2022/11/29 03:18:26;;;;;;;62.97;22.65;;;5.90;99.90;;;;;;5053639;28;20060;-80
2022/11/29 03:21:21;;;;;;;51.78;21.20;;;5.90;99.90;;;;;;5027834;28;20666;-80
2022/11/29 03:24:30;;;;;;;55.40;20.65;;;5.90;99.90;;;;;;5052992;28;20084;-80
2022/11/29 03:27:27;;;;;;;66.68;23.13;;;5.90;99.90;;;;;;5051984;28;20056;-80
2022/11/29 03:30:17;;;;;;;56.97;21.73;;;5.90;99.90;;;;;;5053358;28;20068;-80
2022/11/29 03:33:03;;;;;;;75.03;23.45;;;5.90;99.90;;;;;;5053140;28;20477;-80
2022/11/29 03:36:13;;;;;;;52.83;19.67;;;5.90;99.90;;;;;;5052437;28;20431;-80
2022/11/29 03:39:04;;;;;;;48.30;20.58;;;5.90;99.90;;;;;;5051450;28;20049;-80
2022/11/29 03:41:53;;;;;;;36.78;17.38;;;5.90;99.90;;;;;;5051794;28;20524;-80
2022/11/29 03:44:58;;;;;;;56.80;21.35;;;5.80;99.90;;;;;;5051518;28;20471;-81
2022/11/29 03:47:50;;;;;;;51.42;21.35;;;5.80;99.90;;;;;;5052182;28;20061;-80
2022/11/29 03:50:45;;;;;;;52.03;20.33;;;5.80;99.90;;;;;;5038204;28;20049;-81
2022/11/29 03:53:43;;;;;;;64.35;22.10;;;5.80;99.90;;;;;;5051162;28;20164;-81
2022/11/29 03:56:33;;;;;;;51.92;19.98;;;5.70;99.90;;;;;;5051333;28;20045;-81
2022/11/29 03:59:44;;;;;;;45.50;17.65;;;5.80;99.90;;;;;;5036271;28;20051;-80
2022/11/29 04:02:59;;;;;;;74.35;23.45;;;5.70;99.90;;;;;;5051326;28;20065;-80
2022/11/29 04:06:17;;;;;;;57.37;20.20;;;5.70;99.90;;;;;;5052011;28;20217;-80
2022/11/29 04:09:41;;;;;;;44.67;19.58;;;5.70;99.90;;;;;;5050347;28;20320;-80
2022/11/29 04:12:52;;;;;;;76.28;21.00;;;5.70;99.90;;;;;;5051033;28;20060;-80
2022/11/29 04:15:53;;;;;;;35.22;15.98;;;5.60;99.90;;;;;;5037575;28;20083;-79
2022/11/29 04:18:52;;;;;;;61.67;20.42;;;5.60;99.90;;;;;;5054987;28;20059;-80
2022/11/29 04:21:46;;;;;;;52.17;18.70;;;5.60;99.90;;;;;;5050888;28;20107;-79
2022/11/29 04:24:57;;;;;;;47.17;16.55;;;5.60;99.90;;;;;;5052154;28;20057;-80
2022/11/29 04:28:09;;;;;;;32.47;15.23;;;5.60;99.90;;;;;;5051286;28;20098;-80
2022/11/29 04:31:26;;;;;;;57.85;20.08;;;5.60;99.90;;;;;;5032743;28;20057;-81
2022/11/29 04:34:21;;;;;;;54.55;18.38;;;5.60;99.90;;;;;;5034497;28;20057;-79
2022/11/29 04:37:13;;;;;;;60.20;20.10;;;5.60;99.90;;;;;;5050168;28;20045;-80
2022/11/29 04:40:35;;;;;;;47.72;17.63;;;5.60;99.90;;;;;;5051296;28;20079;-81
2022/11/29 04:43:36;;;;;;;42.80;16.08;;;5.60;99.90;;;;;;5038163;28;20095;-81
2022/11/29 04:46:51;;;;;;;41.45;17.13;;;5.50;99.90;;;;;;5033412;28;20048;-80
2022/11/29 04:49:53;;;;;;;63.25;21.35;;;5.50;99.90;;;;;;5050312;28;20045;-81
2022/11/29 04:52:54;;;;;;;59.95;21.75;;;5.60;99.90;;;;;;5034815;28;20045;-81
2022/11/29 04:56:03;;;;;;;46.35;18.65;;;5.50;99.90;;;;;;5033131;28;20084;-81
2022/11/29 04:59:12;;;;;;;52.15;20.95;;;5.60;99.90;;;;;;5051360;28;20048;-81
2022/11/29 05:02:04;;;;;;;54.38;19.13;;;5.60;99.90;;;;;;5051223;28;20076;-80
2022/11/29 05:05:06;;;;;;;45.38;17.48;;;5.60;99.90;;;;;;5035813;28;20567;-81
2022/11/29 05:08:18;;;;;;;53.83;19.05;;;5.60;99.90;;;;;;5050273;28;20098;-80
2022/11/29 05:11:26;;;;;;;38.78;15.93;;;5.60;99.90;;;;;;5049802;28;20524;-81
2022/11/29 05:14:51;;;;;;;56.88;19.85;;;5.60;99.90;;;;;;5035069;28;20064;-81
2022/11/29 05:17:58;;;;;;;61.53;21.08;;;5.60;99.90;;;;;;5049862;28;20131;-81
2022/11/29 05:21:10;;;;;;;55.47;18.23;;;5.60;99.90;;;;;;5052419;28;20052;-81
2022/11/29 05:24:29;;;;;;;65.60;21.85;;;5.70;99.90;;;;;;5039664;28;20497;-82
2022/11/29 05:27:26;;;;;;;44.40;17.50;;;5.70;99.90;;;;;;5053961;28;20524;-80
2022/11/29 05:30:19;;;;;;;47.55;17.27;;;5.70;99.90;;;;;;5058433;28;20102;-80
2022/11/29 05:33:27;;;;;;;52.08;18.48;;;5.80;99.90;;;;;;5053884;28;20049;-81
2022/11/29 05:36:37;;;;;;;45.40;17.38;;;5.80;99.90;;;;;;5054600;28;20056;-81
2022/11/29 05:39:35;;;;;;;63.40;20.25;;;5.80;99.90;;;;;;5037003;28;20156;-81
2022/11/29 05:42:31;;;;;;;63.72;21.02;;;5.90;99.90;;;;;;5035667;28;20491;-80
2022/11/29 05:45:48;;;;;;;64.88;20.63;;;5.90;99.90;;;;;;5039477;28;20053;-80
2022/11/29 05:49:04;;;;;;;61.08;19.38;;;5.90;99.90;;;;;;5054036;28;20049;-81
2022/11/29 05:52:23;;;;;;;59.92;20.95;;;6.00;99.90;;;;;;5037220;28;20136;-81
2022/11/29 05:55:12;;;;;;;47.20;18.00;;;6.10;99.90;;;;;;5035978;28;20061;-81
2022/11/29 05:58:24;;;;;;;49.75;18.95;;;6.10;99.90;;;;;;5054184;28;20110;-81
2022/11/29 06:01:31;;;;;;;48.88;16.42;;;6.10;99.90;;;;;;5053482;28;20049;-80
2022/11/29 06:04:36;;;;;;;56.28;18.38;;;6.20;99.90;;;;;;5052958;28;20056;-80
2022/11/29 06:07:39;;;;;;;41.97;17.23;;;6.20;99.90;;;;;;5054756;28;20044;-81
2022/11/29 06:10:31;;;;;;;53.42;18.83;;;6.30;99.90;;;;;;5054914;28;20074;-81
2022/11/29 06:13:37;;;;;;;60.63;17.15;;;6.30;99.90;;;;;;5035410;28;20045;-81
2022/11/29 06:16:41;;;;;;;58.28;18.15;;;6.40;99.90;;;;;;5036094;28;20586;-81
2022/11/29 06:20:09;;;;;;;44.10;16.63;;;6.40;99.90;;;;;;5053591;28;20053;-81
2022/11/29 06:23:35;;;;;;;66.78;18.00;;;6.40;99.90;;;;;;5041609;28;20078;-80
2022/11/29 06:26:52;;;;;;;57.75;16.67;;;6.40;99.90;;;;;;5036396;28;20572;-79
2022/11/29 06:30:08;;;;;;;42.15;15.15;;;6.40;99.90;;;;;;5053924;28;20048;-80
2022/11/29 06:33:05;;;;;;;49.97;16.23;;;6.40;99.90;;;;;;5048060;28;20049;-80
2022/11/29 06:36:13;;;;;;;47.47;14.65;;;6.40;99.90;;;;;;5036100;28;20053;-81
2022/11/29 06:38:59;;;;;;;47.88;14.65;;;6.50;99.90;;;;;;5022722;28;20053;-80
2022/11/29 06:41:46;;;;;;;44.10;14.55;;;6.50;99.90;;;;;;5054802;28;20057;-80
2022/11/29 06:44:33;;;;;;;48.17;15.88;;;6.60;99.90;;;;;;5034396;28;20053;-80
2022/11/29 06:47:29;;;;;;;44.70;14.10;;;6.60;99.90;;;;;;5039148;28;20053;-80
2022/11/29 06:50:49;;;;;;;50.75;13.68;;;6.60;99.90;;;;;;5052453;28;20103;-80
2022/11/29 06:53:51;;;;;;;40.33;13.23;;;6.60;99.90;;;;;;5054728;28;20142;-79
2022/11/29 06:56:54;;;;;;;49.38;14.13;;;6.70;99.90;;;;;;5039288;28;20056;-81
2022/11/29 07:00:03;;;;;;;44.83;14.10;;;6.80;99.90;;;;;;5034723;28;20045;-81
2022/11/29 07:03:10;;;;;;;46.25;15.02;;;6.80;99.90;;;;;;5052774;28;20074;-81
2022/11/29 07:05:57;;;;;;;51.97;15.25;;;6.90;99.90;;;;;;5038043;28;20093;-81
2022/11/29 07:08:46;;;;;;;44.00;14.50;;;6.90;99.90;;;;;;5034454;28;20060;-81
2022/11/29 07:11:32;;;;;;;37.30;12.15;;;6.90;99.90;;;;;;5052584;28;20051;-82
2022/11/29 07:14:19;;;;;;;36.78;12.77;;;6.90;99.90;;;;;;5033903;28;20053;-82
2022/11/29 07:17:17;;;;;;;44.72;15.75;;;7.00;99.90;;;;;;5037924;28;20118;-81
2022/11/29 07:20:49;;;;;;;46.22;13.70;;;7.00;99.90;;;;;;5038337;28;20592;-81
2022/11/29 07:23:46;;;;;;;40.95;13.10;;;7.10;99.90;;;;;;5022158;28;20056;-81
2022/11/29 07:27:01;;;;;;;50.28;13.43;;;7.10;99.90;;;;;;5052291;28;20528;-81
2022/11/29 07:30:05;;;;;;;48.67;13.40;;;7.10;99.90;;;;;;5034191;28;20049;-81
2022/11/29 07:33:25;;;;;;;37.65;11.10;;;7.10;99.90;;;;;;5021925;28;20048;-81
2022/11/29 07:36:29;;;;;;;42.13;11.98;;;7.10;99.90;;;;;;5052594;28;20049;-82
2022/11/29 07:39:55;;;;;;;37.67;10.27;;;7.20;99.90;;;;;;5052303;28;20052;-82
2022/11/29 07:43:08;;;;;;;48.38;10.18;;;7.30;99.90;;;;;;4980727;28;20049;-81
2022/11/29 07:45:56;;;;;;;29.02;9.25;;;7.40;99.90;;;;;;5034071;28;20084;-81
2022/11/29 07:48:42;;;;;;;32.22;8.63;;;7.50;99.90;;;;;;5051925;28;20053;-82
2022/11/29 07:51:29;;;;;;;35.90;9.80;;;7.50;99.90;;;;;;5051555;28;20493;-81
2022/11/29 07:54:17;;;;;;;31.55;9.18;;;7.50;99.90;;;;;;5037124;28;20057;-82
2022/11/29 07:57:04;;;;;;;43.25;9.13;;;7.50;99.90;;;;;;5051208;28;20099;-82
2022/11/29 07:59:50;;;;;;;33.35;8.80;;;7.50;99.90;;;;;;5033905;28;20061;-82
2022/11/29 08:02:36;;;;;;;30.48;7.90;;;7.60;99.90;;;;;;5050943;28;20048;-81
2022/11/29 08:05:23;;;;;;;32.22;8.68;;;7.60;99.90;;;;;;5052924;28;20053;-81
2022/11/29 08:08:09;;;;;;;32.72;9.02;;;7.60;99.90;;;;;;5034682;28;20139;-81
2022/11/29 08:10:55;;;;;;;29.58;7.50;;;7.70;99.90;;;;;;5051282;28;20059;-81
2022/11/29 08:13:41;;;;;;;27.45;6.55;;;7.80;99.90;;;;;;5050287;28;20225;-81
2022/11/29 08:16:27;;;;;;;33.65;7.10;;;7.90;99.90;;;;;;5050936;28;20061;-81
2022/11/29 08:19:13;;;;;;;32.08;6.88;;;7.90;99.90;;;;;;5051656;28;20084;-82
2022/11/29 08:22:00;;;;;;;32.92;7.00;;;8.00;99.90;;;;;;5051054;28;20173;-81
2022/11/29 08:24:46;;;;;;;35.33;6.70;;;8.00;99.90;;;;;;5051820;28;20473;-82
2022/11/29 08:27:32;;;;;;;27.75;5.78;;;8.00;99.90;;;;;;5019649;28;20053;-81
2022/11/29 08:30:21;;;;;;;34.85;7.38;;;8.00;99.90;;;;;;5050799;28;20460;-81
2022/11/29 08:33:07;;;;;;;33.70;7.13;;;8.00;99.90;;;;;;5036922;28;20097;-81
2022/11/29 08:35:53;;;;;;;27.00;6.50;;;8.10;99.90;;;;;;5053755;28;20128;-81
2022/11/29 08:38:40;;;;;;;28.33;6.13;;;8.20;99.90;;;;;;5033095;28;20103;-81
2022/11/29 08:41:26;;;;;;;26.23;7.35;;;8.30;99.90;;;;;;5050381;28;20060;-81
2022/11/29 08:44:12;;;;;;;23.98;7.80;;;8.40;99.90;;;;;;5033758;28;20057;-81
2022/11/29 08:50:05;;;;;;;32.58;7.65;;;8.50;99.90;;;;;;5051434;28;20751;-82
2022/11/29 08:55:59;;;;;;;29.30;8.77;;;8.60;99.90;;;;;;5049310;28;20485;-82
2022/11/29 08:58:45;;;;;;;32.33;10.10;;;8.70;99.90;;;;;;5033791;28;20043;-82
2022/11/29 09:01:32;;;;;;;32.33;11.15;;;8.80;99.90;;;;;;5034756;28;20049;-81
2022/11/29 09:04:18;;;;;;;44.63;12.23;;;8.80;99.90;;;;;;5032868;28;20048;-82
2022/11/29 09:07:04;;;;;;;39.78;14.40;;;8.90;99.90;;;;;;5049946;28;20044;-82
2022/11/29 09:09:50;;;;;;;33.58;14.70;;;9.00;99.90;;;;;;5051531;28;20060;-82
2022/11/29 09:12:39;;;;;;;38.35;15.48;;;9.00;99.90;;;;;;5034326;28;20041;-81
2022/11/29 09:15:25;;;;;;;31.88;15.00;;;9.00;99.90;;;;;;5052846;28;20052;-81
2022/11/29 09:18:11;;;;;;;34.85;13.88;;;9.00;99.90;;;;;;5038447;28;20056;-82
2022/11/29 09:20:58;;;;;;;27.13;14.82;;;9.00;99.90;;;;;;5051784;28;20070;-82
2022/11/29 09:23:44;;;;;;;29.55;14.57;;;9.00;99.90;;;;;;5051537;28;20053;-81
2022/11/29 09:26:35;;;;;;;29.88;15.13;;;9.00;99.90;;;;;;5053796;28;20052;-81
2022/11/29 09:29:21;;;;;;;28.50;16.23;;;9.00;99.90;;;;;;5036522;28;20053;-82
2022/11/29 09:32:08;;;;;;;26.10;14.38;;;9.00;99.90;;;;;;5034434;28;20048;-81
2022/11/29 09:34:54;;;;;;;33.50;15.18;;;9.00;99.90;;;;;;5032033;28;20088;-81
2022/11/29 09:37:42;;;;;;;30.70;14.35;;;9.10;99.90;;;;;;5051284;28;20605;-81
2022/11/29 09:41:06;;;;;;;26.13;14.68;;;9.10;99.90;;;;;;5050225;28;20052;-82
2022/11/29 09:44:04;;;;;;;31.52;14.68;;;9.10;99.90;;;;;;5028601;28;20060;-82
2022/11/29 09:46:56;;;;;;;28.63;13.65;;;9.10;99.90;;;;;;5050348;28;20072;-82
2022/11/29 09:50:13;;;;;;;27.05;15.30;;;9.10;99.90;;;;;;5020990;28;20053;-82
2022/11/29 09:53:18;;;;;;;30.67;13.63;;;9.20;99.90;;;;;;5033154;28;20057;-82
2022/11/29 09:56:16;;;;;;;27.60;14.20;;;9.20;99.90;;;;;;5035946;28;20048;-81
2022/11/29 09:59:04;;;;;;;27.63;13.70;;;9.30;99.90;;;;;;5032737;28;20099;-81
2022/11/29 10:02:03;;;;;;;32.05;14.52;;;9.30;99.90;;;;;;5032977;28;20156;-82
2022/11/29 10:05:05;;;;;;;30.88;14.57;;;9.40;99.90;;;;;;5049704;28;20443;-82
2022/11/29 10:08:06;;;;;;;26.48;14.02;;;9.40;99.90;;;;;;5052704;28;20060;-81
2022/11/29 10:11:00;;;;;;;26.08;14.13;;;9.50;99.90;;;;;;5053745;28;20110;-82
2022/11/29 10:13:53;;;;;;;31.33;14.63;;;9.50;99.90;;;;;;5053489;28;20057;-82
2022/11/29 10:16:59;;;;;;;32.10;15.88;;;9.50;99.90;;;;;;5052566;28;20053;-81
2022/11/29 10:19:51;;;;;;;23.83;11.63;;;9.60;99.90;;;;;;5036718;28;20057;-82
2022/11/29 10:23:04;;;;;;;30.88;14.00;;;9.60;99.90;;;;;;5038656;28;20053;-82
2022/11/29 10:25:53;;;;;;;27.63;13.68;;;9.60;99.90;;;;;;5054245;28;20061;-82
2022/11/29 10:28:46;;;;;;;29.17;14.25;;;9.70;99.90;;;;;;5035816;28;20053;-81
2022/11/29 10:31:41;;;;;;;24.42;12.48;;;9.80;99.90;;;;;;5056629;28;20048;-82
2022/11/29 10:34:29;;;;;;;;;;;9.90;99.90;;;;;;5036863;28;20784;-82
2022/11/29 10:37:19;;;;;;;24.08;12.27;;;10.30;99.90;;;;;;5054750;28;19925;-82
2022/11/29 10:40:13;;;;;;;27.40;12.40;;;10.40;99.90;;;;;;5053692;28;20546;-82
2022/11/29 10:43:01;;;;;;;24.48;10.82;;;10.50;99.90;;;;;;5035829;28;20142;-82
2022/11/29 10:45:52;;;;;;;21.45;11.15;;;10.40;99.90;;;;;;5052653;28;20150;-82
2022/11/29 10:48:38;;;;;;;17.48;9.40;;;10.30;99.90;;;;;;5052951;28;20049;-81
2022/11/29 10:51:24;;;;;;;19.58;10.63;;;10.20;99.90;;;;;;5035664;28;20056;-81
2022/11/29 10:54:19;;;;;;;22.90;10.48;;;10.10;99.90;;;;;;5039570;28;20121;-82
2022/11/29 10:57:18;;;;;;;19.30;10.00;;;10.10;99.90;;;;;;5036450;28;20099;-79
2022/11/29 11:00:08;;;;;;;22.30;11.30;;;10.00;99.90;;;;;;5021521;28;20061;-80
2022/11/29 11:02:54;;;;;;;28.67;13.20;;;10.20;99.90;;;;;;5034342;28;20567;-80
2022/11/29 11:05:40;;;;;;;23.83;11.82;;;10.50;99.90;;;;;;5035296;28;20049;-81
2022/11/29 11:08:28;;;;;;;16.98;9.77;;;11.10;99.90;;;;;;5052398;28;20045;-80
2022/11/29 11:11:27;;;;;;;18.08;9.20;;;11.10;99.90;;;;;;5053857;28;20057;-81
2022/11/29 11:14:22;;;;;;;19.15;9.10;;;11.10;99.90;;;;;;5023169;28;20142;-80
2022/11/29 11:17:35;;;;;;;19.30;9.20;;;10.90;99.90;;;;;;5033404;28;20088;-80
2022/11/29 11:20:22;;;;;;;15.13;7.65;;;10.90;99.90;;;;;;5052608;28;20128;-80
2022/11/29 11:23:24;;;;;;;18.85;8.02;;;10.80;99.90;;;;;;5034283;28;20053;-81
2022/11/29 11:26:12;;;;;;;20.38;7.85;;;10.80;99.90;;;;;;5052096;28;20102;-81
2022/11/29 11:29:00;;;;;;;11.65;5.50;;;10.70;99.90;;;;;;5024692;28;20056;-81
2022/11/29 11:31:55;;;;;;;12.15;6.00;;;10.60;99.90;;;;;;5024094;28;20185;-79
2022/11/29 11:34:55;;;;;;;10.15;4.30;;;10.50;99.90;;;;;;5038304;28;20151;-80
2022/11/29 11:37:55;;;;;;;8.55;4.40;;;10.50;99.90;;;;;;5053996;28;20064;-80
2022/11/29 11:40:42;;;;;;;15.73;3.40;;;10.40;99.90;;;;;;5053319;28;20107;-80
2022/11/29 11:43:28;;;;;;;7.13;3.33;;;10.30;99.90;;;;;;5036276;28;20053;-80
2022/11/29 11:46:14;;;;;;;5.18;3.28;;;10.20;99.90;;;;;;5034926;28;20382;-80
2022/11/29 11:49:01;;;;;;;7.53;3.85;;;10.20;99.90;;;;;;5056429;28;20084;-81
2022/11/29 11:51:47;;;;;;;7.97;3.40;;;10.10;99.90;;;;;;5040027;28;20053;-80
2022/11/29 11:54:35;;;;;;;10.27;3.65;;;10.10;99.90;;;;;;5057646;28;20133;-80
2022/11/29 11:57:23;;;;;;;5.30;3.30;;;10.10;99.90;;;;;;5055506;28;20084;-80
2022/11/29 12:00:38;;;;;;;6.75;3.70;;;10.10;99.90;;;;;;5025583;28;20056;-80
2022/11/29 12:03:24;;;;;;;7.03;3.60;;;10.10;99.90;;;;;;5060872;28;20049;-80
2022/11/29 12:06:22;;;;;;;7.03;3.40;;;10.10;99.90;;;;;;5034078;28;20489;-81
2022/11/29 12:09:19;;;;;;;7.35;3.20;;;10.10;99.90;;;;;;5039232;28;20152;-80
2022/11/29 12:12:27;;;;;;;5.05;2.20;;;10.10;99.90;;;;;;5049713;28;20088;-81
2022/11/29 12:15:24;;;;;;;3.63;2.28;;;10.10;99.90;;;;;;5052177;28;20417;-80
2022/11/29 12:18:18;;;;;;;3.85;2.15;;;10.00;99.90;;;;;;5052511;28;20057;-81
2022/11/29 12:21:19;;;;;;;4.32;2.20;;;10.00;99.90;;;;;;5053886;28;20053;-80
2022/11/29 12:24:23;;;;;;;4.00;1.88;;;10.00;99.90;;;;;;5036246;28;20060;-81
2022/11/29 12:27:14;;;;;;;4.30;2.10;;;10.00;99.90;;;;;;5051353;28;20060;-80
2022/11/29 12:30:00;;;;;;;3.60;2.35;;;9.90;99.90;;;;;;5050908;28;20060;-80
2022/11/29 12:32:52;;;;;;;5.28;2.90;;;9.90;99.90;;;;;;5037971;28;20053;-80
2022/11/29 12:36:13;;;;;;;7.57;3.20;;;9.80;99.90;;;;;;5032130;28;20057;-80
2022/11/29 12:39:14;;;;;;;8.05;4.00;;;9.80;99.90;;;;;;5051043;28;20501;-81
2022/11/29 12:42:13;;;;;;;7.03;4.57;;;9.70;99.90;;;;;;5032412;28;20072;-80
2022/11/29 12:45:16;;;;;;;7.90;4.30;;;9.70;99.90;;;;;;5055327;28;20049;-80
2022/11/29 12:48:33;;;;;;;7.28;4.55;;;9.60;99.90;;;;;;5019311;28;20053;-80
2022/11/29 12:51:43;;;;;;;6.95;4.80;;;9.60;99.90;;;;;;5033468;28;20446;-80
2022/11/29 12:55:00;;;;;;;13.18;5.95;;;9.50;99.90;;;;;;5033026;28;20088;-80
2022/11/29 12:58:21;;;;;;;12.70;6.50;;;9.50;99.90;;;;;;5050851;28;20057;-80
2022/11/29 13:01:33;;;;;;;9.75;6.70;;;9.50;99.90;;;;;;5051074;28;20049;-80
2022/11/29 13:04:55;;;;;;;13.27;7.18;;;9.50;99.90;;;;;;5050099;28;20049;-81
2022/11/29 13:07:49;;;;;;;14.23;7.53;;;9.50;99.90;;;;;;5031793;28;20079;-80
2022/11/29 13:11:02;;;;;;;13.35;7.40;;;9.40;99.90;;;;;;5050154;28;20060;-80
2022/11/29 13:14:12;;;;;;;14.75;7.25;;;9.50;99.90;;;;;;5054550;28;20052;-80
2022/11/29 13:17:03;;;;;;;10.65;7.07;;;9.40;99.90;;;;;;5050627;28;20049;-80
2022/11/29 13:19:59;;;;;;;12.32;7.68;;;9.40;99.90;;;;;;5019680;28;20057;-79
2022/11/29 13:23:00;;;;;;;11.43;7.55;;;9.40;99.90;;;;;;5049514;28;20099;-80
2022/11/29 13:25:50;;;;;;;11.57;7.00;;;9.40;99.90;;;;;;5032479;28;20057;-78
2022/11/29 13:28:40;;;;;;;16.10;7.65;;;9.40;99.90;;;;;;5037400;28;20053;-81
2022/11/29 13:31:26;;;;;;;13.98;8.10;;;9.40;99.90;;;;;;5050096;28;20846;-80
2022/11/29 13:34:22;;;;;;;15.27;7.95;;;9.40;99.90;;;;;;5050650;28;20421;-80
2022/11/29 13:37:14;;;;;;;17.30;8.73;;;9.30;99.90;;;;;;5049906;28;20060;-80
2022/11/29 13:40:16;;;;;;;14.85;8.48;;;9.20;99.90;;;;;;5052349;28;20520;-80
2022/11/29 13:43:44;;;;;;;16.08;9.40;;;9.30;99.90;;;;;;5052780;28;20415;-80
2022/11/29 13:47:02;;;;;;;16.60;10.00;;;9.20;99.90;;;;;;5001562;28;20056;-81
2022/11/29 13:50:01;;;;;;;12.25;8.43;;;9.20;99.90;;;;;;5053429;28;20045;-81
2022/11/29 13:52:47;;;;;;;15.02;9.40;;;9.20;99.90;;;;;;5055010;28;20045;-80
2022/11/29 13:55:47;;;;;;;17.45;9.45;;;9.20;99.90;;;;;;5055587;28;20048;-81
2022/11/29 13:58:37;;;;;;;14.75;8.63;;;9.20;99.90;;;;;;5035307;28;20051;-80
2022/11/29 14:01:25;;;;;;;13.75;9.50;;;9.10;99.90;;;;;;5054378;28;20467;-81
2022/11/29 14:04:26;;;;;;;14.70;9.82;;;9.10;99.90;;;;;;5053800;28;20417;-81
2022/11/29 14:07:18;;;;;;;13.43;9.07;;;9.10;99.90;;;;;;5055309;28;20413;-81
2022/11/29 14:10:15;;;;;;;19.63;9.55;;;9.10;99.90;;;;;;5053674;28;20041;-81
2022/11/29 14:13:01;;;;;;;15.73;9.23;;;9.10;99.90;;;;;;5036178;28;20055;-81
2022/11/29 14:15:55;;;;;;;14.90;9.88;;;9.00;99.90;;;;;;5034380;28;20061;-80
2022/11/29 14:18:42;;;;;;;14.50;9.38;;;9.00;99.90;;;;;;5052560;28;20513;-80
2022/11/29 14:22:05;;;;;;;14.50;9.57;;;9.00;99.90;;;;;;5039431;28;20064;-81
2022/11/29 14:25:00;;;;;;;18.58;10.00;;;8.90;99.90;;;;;;5035237;28;20493;-81
2022/11/29 14:27:55;;;;;;;15.93;10.05;;;8.90;99.90;;;;;;5053859;28;20080;-81
2022/11/29 14:30:50;;;;;;;17.05;10.10;;;8.90;99.90;;;;;;5052812;28;20114;-80
2022/11/29 14:33:42;;;;;;;19.08;10.82;;;8.80;99.90;;;;;;5052855;28;20110;-81
2022/11/29 14:36:37;;;;;;;20.98;9.95;;;8.80;99.90;;;;;;5053226;28;20076;-80
2022/11/29 14:39:26;;;;;;;18.67;10.65;;;8.80;99.90;;;;;;5052028;28;20504;-80
2022/11/29 14:42:17;;;;;;;18.17;10.20;;;8.70;99.90;;;;;;5038711;28;20064;-81
2022/11/29 14:45:38;;;;;;;16.88;10.82;;;8.80;99.90;;;;;;5034708;28;20052;-81
2022/11/29 14:48:28;;;;;;;17.65;10.98;;;8.70;99.90;;;;;;5052833;28;20115;-81
2022/11/29 14:51:18;;;;;;;19.00;10.75;;;8.70;99.90;;;;;;5034264;28;20111;-81
2022/11/29 14:54:14;;;;;;;16.08;10.23;;;8.70;99.90;;;;;;5033467;28;20051;-81
2022/11/29 14:57:38;;;;;;;17.90;10.73;;;8.70;99.90;;;;;;5055235;28;20051;-81
2022/11/29 15:00:47;;;;;;;18.67;10.82;;;8.60;99.90;;;;;;5034924;28;20109;-80
2022/11/29 15:03:38;;;;;;;17.65;10.55;;;8.60;99.90;;;;;;5020169;28;20471;-81
2022/11/29 15:06:26;;;;;;;16.55;10.80;;;8.50;99.90;;;;;;5021653;28;20045;-81
2022/11/29 15:09:19;;;;;;;15.98;10.18;;;8.50;99.90;;;;;;5053033;28;20045;-80
2022/11/29 15:12:22;;;;;;;16.70;11.40;;;8.50;99.90;;;;;;5058617;28;20045;-81
2022/11/29 15:15:17;;;;;;;14.98;9.82;;;8.50;99.90;;;;;;5020407;28;20040;-80
2022/11/29 15:18:17;;;;;;;15.85;10.07;;;8.50;99.90;;;;;;5051615;28;20087;-81